createdAt,value
2022-10-23T00:01:50.847Z,60.21
2022-10-23T00:04:22.601Z,60.87
2022-10-23T00:06:50.009Z,60.89
2022-10-23T00:09:20.411Z,60.40
2022-10-23T00:11:48.189Z,60.45
2022-10-23T00:14:15.830Z,60.00
2022-10-23T00:16:42.399Z,60.32
2022-10-23T00:19:09.366Z,60.88
2022-10-23T00:21:36.705Z,60.99
2022-10-23T00:24:03.492Z,60.08
2022-10-23T00:26:30.119Z,60.84
2022-10-23T00:28:57.091Z,60.72
2022-10-23T00:31:24.793Z,60.92
2022-10-23T00:33:51.744Z,59.60
2022-10-23T00:36:20.426Z,59.70
2022-10-23T00:38:47.531Z,60.21
2022-10-23T00:41:19.975Z,59.48
2022-10-23T00:44:07.975Z,60.88
2022-10-23T00:46:36.747Z,60.52
2022-10-23T00:49:05.266Z,60.50
2022-10-23T00:51:44.928Z,60.70
2022-10-23T00:54:29.163Z,60.34
2022-10-23T00:57:01.663Z,60.58
2022-10-23T00:59:29.341Z,60.58
2022-10-23T01:01:56.015Z,59.96
2022-10-23T01:04:24.049Z,60.22
2022-10-23T01:07:09.518Z,61.96
2022-10-23T01:09:55.739Z,61.50
2022-10-23T01:12:31.310Z,61.93
2022-10-23T01:15:21.705Z,61.52
2022-10-23T01:18:02.226Z,62.04
2022-10-23T01:20:40.864Z,61.02
2022-10-23T01:23:37.817Z,60.96
2022-10-23T01:26:25.976Z,60.48
2022-10-23T01:29:13.520Z,60.46
2022-10-23T01:31:44.930Z,60.18
2022-10-23T01:34:20.954Z,60.46
2022-10-23T01:36:49.250Z,60.60
2022-10-23T01:39:21.939Z,60.41
2022-10-23T01:42:00.046Z,60.65
2022-10-23T01:44:36.835Z,60.64
2022-10-23T01:47:08.515Z,60.37
2022-10-23T01:49:48.594Z,60.85
2022-10-23T01:52:17.517Z,61.35
2022-10-23T01:54:47.558Z,61.04
2022-10-23T01:57:18.133Z,61.25
2022-10-23T01:59:49.552Z,61.38
2022-10-23T02:02:18.944Z,61.23
2022-10-23T02:05:07.782Z,61.45
2022-10-23T02:07:35.130Z,61.52
2022-10-23T02:10:04.972Z,61.89
2022-10-23T02:12:54.918Z,61.60
2022-10-23T02:15:30.875Z,61.37
2022-10-23T02:18:00.418Z,60.87
2022-10-23T02:20:41.151Z,60.23
2022-10-23T02:23:17.237Z,61.34
2022-10-23T02:26:13.751Z,61.54
2022-10-23T02:28:45.745Z,62.28
2022-10-23T02:31:16.895Z,61.93
2022-10-23T02:33:46.710Z,61.31
2022-10-23T02:36:14.092Z,62.09
2022-10-23T02:38:43.493Z,62.14
2022-10-23T02:41:37.833Z,62.57
2022-10-23T02:44:28.415Z,62.02
2022-10-23T02:47:18.221Z,61.18
2022-10-23T02:50:09.497Z,61.64
2022-10-23T02:53:03.122Z,61.86
2022-10-23T02:56:01.859Z,61.26
2022-10-23T02:58:42.830Z,60.78
2022-10-23T03:01:22.871Z,62.25
2022-10-23T03:03:56.581Z,61.87
2022-10-23T03:06:24.347Z,62.28
2022-10-23T03:09:07.585Z,62.50
2022-10-23T03:11:34.322Z,62.68
2022-10-23T03:14:00.903Z,61.83
2022-10-23T03:16:27.880Z,62.29
2022-10-23T03:18:55.132Z,62.06
2022-10-23T03:21:21.990Z,61.97
2022-10-23T03:23:52.107Z,61.81
2022-10-23T03:26:24.889Z,61.79
2022-10-23T03:28:51.530Z,61.85
2022-10-23T03:31:20.349Z,61.35
2022-10-23T03:33:49.279Z,62.20
2022-10-23T03:36:15.856Z,61.61
2022-10-23T03:38:43.075Z,61.31
2022-10-23T03:41:10.550Z,60.66
2022-10-23T03:43:37.178Z,61.20
2022-10-23T03:46:08.978Z,60.76
2022-10-23T03:48:38.172Z,61.54
2022-10-23T03:51:05.988Z,61.95
2022-10-23T03:53:32.592Z,61.38
2022-10-23T03:56:01.927Z,61.77
2022-10-23T03:58:28.626Z,59.94
2022-10-23T04:00:55.837Z,60.03
2022-10-23T04:03:22.957Z,61.11
2022-10-23T04:05:52.245Z,60.90
2022-10-23T04:08:21.650Z,60.25
2022-10-23T04:10:51.239Z,61.05
2022-10-23T04:13:21.167Z,60.58
2022-10-23T04:15:49.598Z,60.82
2022-10-23T04:18:16.853Z,60.81
2022-10-23T04:20:43.495Z,60.65
2022-10-23T04:23:10.847Z,60.58
2022-10-23T04:25:40.352Z,60.56
2022-10-23T04:28:08.034Z,60.86
2022-10-23T04:30:38.268Z,61.10
2022-10-23T04:33:05.636Z,60.63
2022-10-23T04:35:32.311Z,61.10
2022-10-23T04:37:59.575Z,61.59
2022-10-23T04:40:26.105Z,62.46
2022-10-23T04:42:54.410Z,61.44
2022-10-23T04:45:21.390Z,60.96
2022-10-23T04:47:47.988Z,61.33
2022-10-23T04:50:15.097Z,61.08
2022-10-23T04:53:10.997Z,60.92
2022-10-23T04:55:57.770Z,60.96
2022-10-23T04:58:48.422Z,60.71
2022-10-23T05:01:15.153Z,60.97
2022-10-23T05:03:42.124Z,60.80
2022-10-23T05:06:09.046Z,60.74
2022-10-23T05:08:50.241Z,61.22
2022-10-23T05:11:39.682Z,60.81
2022-10-23T05:14:08.397Z,61.04
2022-10-23T05:16:44.381Z,62.24
2022-10-23T05:19:20.693Z,61.53
2022-10-23T05:21:55.685Z,61.20
2022-10-23T05:24:26.079Z,61.86
2022-10-23T05:26:57.719Z,61.69
2022-10-23T05:29:24.235Z,60.95
2022-10-23T05:31:56.678Z,61.15
2022-10-23T05:34:26.526Z,61.00
2022-10-23T05:36:53.452Z,61.40
2022-10-23T05:39:23.747Z,61.36
2022-10-23T05:41:52.917Z,60.73
2022-10-23T05:44:23.034Z,62.08
2022-10-23T05:47:17.276Z,61.15
2022-10-23T05:49:59.277Z,60.69
2022-10-23T05:52:49.323Z,60.50
2022-10-23T05:55:48.063Z,61.32
2022-10-23T05:58:38.281Z,60.83
2022-10-23T06:01:14.827Z,61.35
2022-10-23T06:04:07.307Z,60.91
2022-10-23T06:07:03.897Z,60.59
2022-10-23T06:09:31.164Z,60.45
2022-10-23T06:11:58.382Z,60.25
2022-10-23T06:14:24.911Z,60.49
2022-10-23T06:16:52.268Z,60.75
2022-10-23T06:19:19.451Z,60.89
2022-10-23T06:21:49.146Z,60.65
2022-10-23T06:24:16.466Z,60.40
2022-10-23T06:26:54.616Z,60.77
2022-10-23T06:29:31.965Z,61.00
2022-10-23T06:31:58.602Z,60.33
2022-10-23T06:34:25.208Z,60.21
2022-10-23T06:36:51.803Z,60.31
2022-10-23T06:39:36.989Z,61.17
2022-10-23T06:42:15.031Z,60.88
2022-10-23T06:45:08.238Z,60.79
2022-10-23T06:47:55.007Z,60.67
2022-10-23T06:50:52.707Z,60.64
2022-10-23T06:53:24.922Z,61.61
2022-10-23T06:56:00.681Z,60.94
2022-10-23T06:58:27.745Z,61.00
2022-10-23T07:01:02.796Z,61.10
2022-10-23T07:03:29.435Z,61.65
2022-10-23T07:05:56.053Z,63.14
2022-10-23T07:08:23.798Z,62.34
2022-10-23T07:10:52.597Z,63.08
2022-10-23T07:13:19.711Z,61.00
2022-10-23T07:16:21.148Z,61.87
2022-10-23T07:18:50.312Z,61.87
2022-10-23T07:21:31.223Z,61.93
2022-10-23T07:24:18.030Z,61.16
2022-10-23T07:26:45.006Z,61.92
2022-10-23T07:29:13.430Z,61.43
2022-10-23T07:31:41.455Z,62.72
2022-10-23T07:34:32.032Z,61.90
2022-10-23T07:37:19.203Z,62.05
2022-10-23T07:39:45.793Z,62.08
2022-10-23T07:42:12.423Z,61.47
2022-10-23T07:44:40.979Z,61.07
2022-10-23T07:47:07.595Z,62.08
2022-10-23T07:49:34.238Z,62.39
2022-10-23T07:52:01.015Z,61.31
2022-10-23T07:54:37.407Z,61.12
2022-10-23T07:57:16.464Z,60.26
2022-10-23T07:59:47.139Z,61.83
2022-10-23T08:02:18.383Z,61.92
2022-10-23T08:04:49.128Z,62.30
2022-10-23T08:07:26.719Z,61.09
2022-10-23T08:09:56.203Z,61.67
2022-10-23T08:12:22.780Z,63.22
2022-10-23T08:14:49.348Z,61.82
2022-10-23T08:17:16.277Z,63.02
2022-10-23T08:20:00.804Z,62.71
2022-10-23T08:22:35.075Z,62.38
2022-10-23T08:25:02.459Z,61.96
2022-10-23T08:27:29.976Z,61.79
2022-10-23T08:29:56.540Z,61.98
2022-10-23T08:32:23.530Z,63.75
2022-10-23T08:34:56.081Z,65.19
2022-10-23T08:37:24.278Z,64.75
2022-10-23T08:39:53.221Z,65.85
2022-10-23T08:42:27.535Z,65.33
2022-10-23T08:45:05.970Z,65.74
2022-10-23T08:47:44.581Z,65.01
2022-10-23T08:50:41.007Z,65.42
2022-10-23T08:53:52.460Z,65.69
2022-10-23T08:56:28.783Z,65.97
2022-10-23T08:59:19.838Z,66.37
2022-10-23T09:02:32.847Z,65.16
2022-10-23T09:04:59.786Z,65.10
2022-10-23T09:08:00.259Z,65.19
2022-10-23T09:10:54.646Z,64.73
2022-10-23T09:13:44.071Z,64.26
2022-10-23T09:16:23.372Z,62.96
2022-10-23T09:18:50.217Z,62.28
2022-10-23T09:21:17.173Z,63.18
2022-10-23T09:23:44.050Z,60.45
2022-10-23T09:26:17.048Z,61.27
2022-10-23T09:28:47.837Z,59.99
2022-10-23T09:31:15.148Z,59.53
2022-10-23T09:33:41.704Z,62.51
2022-10-23T09:36:12.449Z,63.31
2022-10-23T09:38:53.038Z,64.41
2022-10-23T09:41:35.544Z,64.28
2022-10-23T09:44:07.916Z,63.64
2022-10-23T09:46:53.474Z,63.23
2022-10-23T09:49:28.879Z,62.04
2022-10-23T09:52:05.852Z,61.46
2022-10-23T09:54:36.955Z,61.25
2022-10-23T09:57:23.437Z,61.22
2022-10-23T10:00:01.968Z,60.78
2022-10-23T10:02:38.263Z,60.93
2022-10-23T10:05:34.975Z,61.21
2022-10-23T10:08:10.705Z,60.48
2022-10-23T10:10:48.109Z,60.25
2022-10-23T10:13:37.180Z,60.93
2022-10-23T10:16:16.680Z,61.47
2022-10-23T10:18:43.138Z,61.35
2022-10-23T10:21:15.718Z,62.72
2022-10-23T10:24:08.009Z,62.33
2022-10-23T10:30:53.079Z,61.92
2022-10-23T10:33:35.622Z,62.15
2022-10-23T10:36:15.161Z,60.96
2022-10-23T10:38:47.798Z,61.88
2022-10-23T10:41:20.421Z,61.56
2022-10-23T10:44:05.997Z,61.84
2022-10-23T10:46:56.265Z,61.03
2022-10-23T10:49:38.145Z,61.54
2022-10-23T10:52:40.155Z,60.80
2022-10-23T10:55:20.712Z,60.30
2022-10-23T10:57:59.184Z,59.56
2022-10-23T11:00:28.497Z,59.46
2022-10-23T11:03:02.743Z,59.13
2022-10-23T11:05:37.245Z,58.61
2022-10-23T11:08:17.992Z,58.67
2022-10-23T11:10:48.151Z,60.26
2022-10-23T11:13:30.445Z,59.63
2022-10-23T11:16:02.712Z,59.14
2022-10-23T11:18:32.401Z,58.01
2022-10-23T11:21:17.483Z,57.41
2022-10-23T11:24:17.844Z,56.31
2022-10-23T11:26:47.347Z,58.55
2022-10-23T11:29:41.898Z,57.93
2022-10-23T11:32:20.662Z,57.33
2022-10-23T11:34:55.961Z,57.64
2022-10-23T11:37:22.839Z,57.69
2022-10-23T11:40:15.365Z,57.15
2022-10-23T11:42:42.295Z,56.58
2022-10-23T11:45:29.031Z,55.56
2022-10-23T11:48:04.688Z,55.59
2022-10-23T11:50:51.207Z,56.43
2022-10-23T11:53:47.068Z,56.43
2022-10-23T11:56:14.637Z,56.74
2022-10-23T11:58:49.749Z,56.92
2022-10-23T12:01:16.402Z,55.83
2022-10-23T12:03:52.699Z,56.41
2022-10-23T12:06:24.851Z,55.51
2022-10-23T12:08:55.337Z,55.27
2022-10-23T12:11:42.271Z,55.62
2022-10-23T12:14:30.630Z,54.98
2022-10-23T12:16:57.396Z,54.68
2022-10-23T12:19:26.560Z,53.67
2022-10-23T12:21:58.325Z,54.05
2022-10-23T12:24:39.871Z,53.98
2022-10-23T12:27:30.787Z,52.88
2022-10-23T12:30:18.709Z,53.58
2022-10-23T12:33:14.332Z,54.18
2022-10-23T12:36:11.804Z,55.63
2022-10-23T12:38:49.800Z,56.84
2022-10-23T12:41:31.830Z,57.22
2022-10-23T12:44:01.401Z,56.38
2022-10-23T12:46:32.846Z,57.21
2022-10-23T12:49:01.258Z,56.37
2022-10-23T12:51:31.613Z,55.16
2022-10-23T12:53:58.441Z,56.94
2022-10-23T12:56:28.518Z,56.69
2022-10-23T12:59:01.360Z,58.21
2022-10-23T13:01:32.997Z,56.92
2022-10-23T13:04:13.447Z,57.14
2022-10-23T13:06:40.365Z,58.21
2022-10-23T13:09:22.172Z,57.32
2022-10-23T13:12:18.544Z,56.89
2022-10-23T13:15:12.465Z,55.69
2022-10-23T13:17:42.769Z,55.19
2022-10-23T13:20:18.614Z,54.02
2022-10-23T13:22:48.022Z,53.79
2022-10-23T13:25:29.348Z,55.02
2022-10-23T13:28:23.609Z,55.41
2022-10-23T13:31:04.247Z,54.64
2022-10-23T13:33:48.639Z,55.23
2022-10-23T13:36:15.124Z,55.94
2022-10-23T13:38:47.522Z,58.97
2022-10-23T13:41:17.659Z,59.42
2022-10-23T13:43:45.467Z,57.71
2022-10-23T13:46:20.605Z,58.38
2022-10-23T13:48:48.066Z,58.51
2022-10-23T13:51:15.834Z,59.44
2022-10-23T13:53:42.407Z,58.92
2022-10-23T13:56:12.322Z,58.96
2022-10-23T13:58:39.114Z,61.52
2022-10-23T14:01:06.969Z,60.05
2022-10-23T14:03:33.600Z,57.97
2022-10-23T14:06:01.452Z,60.08
2022-10-23T14:08:27.984Z,60.63
2022-10-23T14:10:54.620Z,60.26
2022-10-23T14:13:21.181Z,60.32
2022-10-23T14:15:53.976Z,61.00
2022-10-23T14:18:20.894Z,60.19
2022-10-23T14:20:47.463Z,60.78
2022-10-23T14:23:14.036Z,60.21
2022-10-23T14:25:40.570Z,60.54
2022-10-23T14:28:07.123Z,59.64
2022-10-23T14:30:37.109Z,60.66
2022-10-23T14:33:04.453Z,59.80
2022-10-23T14:35:31.003Z,60.49
2022-10-23T14:37:58.476Z,59.79
2022-10-23T14:40:25.516Z,60.28
2022-10-23T14:42:52.102Z,59.21
2022-10-23T14:45:18.668Z,58.89
2022-10-23T14:47:46.392Z,60.40
2022-10-23T14:50:13.772Z,60.05
2022-10-23T14:52:40.396Z,60.64
2022-10-23T14:55:07.318Z,61.40
2022-10-23T14:57:34.078Z,61.55
2022-10-23T15:00:00.601Z,61.62
2022-10-23T15:02:27.119Z,61.12
2022-10-23T15:04:53.646Z,60.47
2022-10-23T15:07:20.165Z,60.35
2022-10-23T15:09:46.753Z,60.22
2022-10-23T15:12:13.377Z,61.07
2022-10-23T15:14:39.973Z,60.93
2022-10-23T15:17:06.764Z,61.33
2022-10-23T15:19:33.391Z,60.99
2022-10-23T15:22:00.225Z,60.97
2022-10-23T15:24:26.903Z,61.50
2022-10-23T15:26:53.528Z,61.89
2022-10-23T15:29:20.481Z,61.03
2022-10-23T15:31:56.919Z,61.11
2022-10-23T15:34:26.397Z,61.25
2022-10-23T15:36:55.291Z,61.31
2022-10-23T15:39:25.172Z,61.39
2022-10-23T15:41:54.533Z,61.78
2022-10-23T15:44:23.833Z,61.65
2022-10-23T15:46:51.565Z,62.54
2022-10-23T15:49:18.695Z,62.69
2022-10-23T15:51:46.572Z,61.72
2022-10-23T15:54:19.171Z,60.87
2022-10-23T15:56:48.019Z,59.45
2022-10-23T15:59:15.575Z,59.13
2022-10-23T16:01:42.447Z,58.00
2022-10-23T16:04:10.221Z,59.34
2022-10-23T16:06:37.396Z,58.89
2022-10-23T16:09:04.002Z,58.46
2022-10-23T16:11:34.691Z,56.97
2022-10-23T16:14:03.112Z,56.67
2022-10-23T16:16:31.433Z,57.36
2022-10-23T16:19:03.460Z,58.30
2022-10-23T16:21:32.304Z,57.18
2022-10-23T16:24:00.765Z,56.39
2022-10-23T16:26:29.265Z,56.36
2022-10-23T16:28:58.210Z,55.26
2022-10-23T16:31:25.961Z,53.92
2022-10-23T16:33:53.499Z,52.35
2022-10-23T16:36:21.984Z,51.35
2022-10-23T16:39:09.866Z,51.39
2022-10-23T16:41:55.123Z,49.49
2022-10-23T16:44:25.930Z,49.28
2022-10-23T16:47:00.671Z,48.29
2022-10-23T16:49:29.703Z,48.92
2022-10-23T16:51:56.281Z,49.48
2022-10-23T16:54:22.881Z,46.44
2022-10-23T16:56:49.540Z,47.12
2022-10-23T16:59:16.112Z,47.64
2022-10-23T17:01:43.213Z,47.75
2022-10-23T17:04:09.885Z,48.45
2022-10-23T17:06:37.315Z,49.14
2022-10-23T17:09:05.051Z,49.62
2022-10-23T17:11:35.087Z,49.73
2022-10-23T17:14:08.062Z,49.46
2022-10-23T17:16:38.534Z,48.38
2022-10-23T17:19:15.955Z,48.60
2022-10-23T17:21:47.964Z,50.07
2022-10-23T17:24:14.541Z,50.81
2022-10-23T17:26:41.750Z,49.71
2022-10-23T17:29:10.304Z,51.72
2022-10-23T17:31:39.514Z,51.46
2022-10-23T17:34:10.303Z,51.67
2022-10-23T17:36:39.610Z,51.68
2022-10-23T17:39:08.311Z,52.24
2022-10-23T17:41:35.603Z,51.31
2022-10-23T17:44:02.936Z,50.68
2022-10-23T17:46:30.081Z,50.55
2022-10-23T17:48:58.019Z,49.57
2022-10-23T17:51:27.188Z,51.53
2022-10-23T17:53:55.899Z,52.14
2022-10-23T17:56:24.893Z,53.64
2022-10-23T17:58:58.883Z,54.34
2022-10-23T18:01:27.291Z,53.84
2022-10-23T18:03:55.859Z,53.51
2022-10-23T18:06:28.867Z,53.37
2022-10-23T18:08:56.763Z,53.71
2022-10-23T18:11:26.011Z,52.57
2022-10-23T18:13:53.665Z,51.66
2022-10-23T18:16:20.874Z,52.40
2022-10-23T18:18:48.608Z,51.50
2022-10-23T18:21:16.821Z,50.92
2022-10-23T18:23:43.501Z,51.09
2022-10-23T18:26:18.726Z,50.34
2022-10-23T18:28:47.324Z,49.99
2022-10-23T18:31:15.873Z,50.68
2022-10-23T18:33:43.317Z,50.56
2022-10-23T18:36:19.592Z,50.65
2022-10-23T18:38:46.551Z,49.45
2022-10-23T18:41:13.188Z,48.63
2022-10-23T18:43:44.496Z,48.66
2022-10-23T18:46:13.331Z,49.91
2022-10-23T18:48:40.763Z,49.77
2022-10-23T18:51:18.982Z,50.29
2022-10-23T18:53:48.660Z,48.99
2022-10-23T18:56:21.735Z,48.67
2022-10-23T18:58:58.447Z,49.34
2022-10-23T19:01:27.420Z,48.88
2022-10-23T19:06:23.564Z,50.12
2022-10-23T19:08:50.644Z,49.28
2022-10-23T19:11:19.782Z,49.76
2022-10-23T19:22:30.098Z,53.79
2022-10-23T19:25:10.222Z,54.34
2022-10-23T19:27:38.620Z,54.72
2022-10-23T19:30:12.665Z,54.84
2022-10-23T19:32:43.598Z,55.10
2022-10-23T19:35:10.800Z,55.10
2022-10-23T19:37:37.784Z,54.63
2022-10-23T19:40:06.669Z,55.39
2022-10-23T19:42:34.206Z,55.51
2022-10-23T19:45:01.285Z,55.57
2022-10-23T19:47:27.866Z,55.55
2022-10-23T19:49:54.425Z,55.28
2022-10-23T19:52:22.152Z,54.78
2022-10-23T19:54:49.435Z,54.49
2022-10-23T19:57:19.225Z,55.18
2022-10-23T19:59:52.597Z,54.86
2022-10-23T20:02:20.213Z,55.46
2022-10-23T20:04:47.098Z,54.71
2022-10-23T20:07:13.925Z,54.89
2022-10-23T20:09:40.590Z,55.21
2022-10-23T20:12:07.367Z,55.08
2022-10-23T20:14:34.250Z,55.18
2022-10-23T20:17:01.580Z,55.39
2022-10-23T20:19:28.821Z,55.36
2022-10-23T20:21:55.432Z,55.04
2022-10-23T20:24:22.223Z,55.50
2022-10-23T20:26:51.531Z,55.72
2022-10-23T20:29:18.753Z,55.50
2022-10-23T20:31:45.484Z,56.12
2022-10-23T20:34:12.452Z,54.91
2022-10-23T20:36:45.645Z,55.27
2022-10-23T20:39:21.813Z,54.85
2022-10-23T20:41:48.473Z,55.47
2022-10-23T20:46:43.788Z,55.47
2022-10-23T20:49:11.919Z,55.42
2022-10-23T20:51:38.453Z,54.73
2022-10-23T20:54:06.101Z,54.13
2022-10-23T20:56:35.128Z,54.26
2022-10-23T20:59:11.664Z,53.99
2022-10-23T21:01:43.630Z,53.37
2022-10-23T21:04:12.987Z,53.25
2022-10-23T21:06:51.939Z,52.44
2022-10-23T21:09:29.881Z,53.56
2022-10-23T21:11:56.477Z,52.83
2022-10-23T21:14:23.041Z,53.02
2022-10-23T21:16:49.823Z,52.22
2022-10-23T21:19:16.533Z,52.03
2022-10-23T21:21:43.986Z,51.88
2022-10-23T21:24:14.890Z,52.95
2022-10-23T21:26:41.650Z,53.11
2022-10-23T21:29:21.115Z,52.94
2022-10-23T21:31:59.367Z,54.28
2022-10-23T21:34:26.628Z,53.68
2022-10-23T21:37:12.342Z,53.40
2022-10-23T21:39:40.359Z,54.25
2022-10-23T21:42:06.949Z,53.87
2022-10-23T21:44:33.573Z,53.96
2022-10-23T21:47:00.109Z,53.79
2022-10-23T21:49:26.698Z,54.19
2022-10-23T21:51:54.847Z,54.42
2022-10-23T21:54:21.764Z,54.24
2022-10-23T21:56:50.752Z,53.13
2022-10-23T21:59:21.901Z,53.31
2022-10-23T22:01:48.801Z,53.44
2022-10-23T22:04:17.452Z,53.17
2022-10-23T22:06:46.181Z,53.12
2022-10-23T22:09:15.329Z,53.61
2022-10-23T22:11:42.379Z,52.42
2022-10-23T22:14:08.936Z,52.36
2022-10-23T22:16:35.537Z,52.28
2022-10-23T22:19:02.156Z,51.98
2022-10-23T22:21:29.997Z,51.99
2022-10-23T22:23:58.500Z,52.54
2022-10-23T22:26:32.423Z,52.38
2022-10-23T22:29:01.547Z,52.13
2022-10-23T22:31:31.529Z,51.45
2022-10-23T22:33:58.669Z,51.15
2022-10-23T22:36:26.023Z,51.59
2022-10-23T22:38:53.187Z,50.68
2022-10-23T22:41:20.152Z,50.87
2022-10-23T22:43:46.794Z,51.38
2022-10-23T22:46:18.662Z,51.43
2022-10-23T22:48:45.948Z,51.39
2022-10-23T22:51:14.447Z,51.26
2022-10-23T22:53:41.488Z,51.14
2022-10-23T22:56:10.868Z,50.62
2022-10-23T22:58:37.538Z,51.57
2022-10-23T23:01:11.846Z,51.22
2022-10-23T23:03:38.953Z,50.84
2022-10-23T23:06:07.086Z,50.97
2022-10-23T23:08:35.022Z,51.11
2022-10-23T23:11:02.149Z,51.66
2022-10-23T23:13:28.772Z,50.90
2022-10-23T23:15:56.044Z,51.12
2022-10-23T23:18:22.712Z,50.51
2022-10-23T23:20:49.670Z,50.72
2022-10-23T23:23:16.802Z,50.77
2022-10-23T23:25:45.529Z,50.87
2022-10-23T23:28:13.358Z,52.45
2022-10-23T23:30:41.161Z,51.66
2022-10-23T23:33:08.432Z,52.97
2022-10-23T23:35:38.688Z,52.68
2022-10-23T23:38:05.249Z,52.74
2022-10-23T23:40:31.795Z,53.34
2022-10-23T23:42:58.353Z,53.58
2022-10-23T23:45:24.959Z,53.98
2022-10-23T23:47:51.598Z,54.18
2022-10-23T23:50:18.283Z,54.97
2022-10-23T23:52:44.847Z,54.93
2022-10-23T23:55:12.010Z,55.39
2022-10-23T23:57:38.630Z,55.36
